createdAt,value
2023-03-26T00:02:26.043Z,56.88
2023-03-26T00:05:28.752Z,56.20
2023-03-26T00:08:31.296Z,57.46
2023-03-26T00:11:33.966Z,56.83
2023-03-26T00:14:36.441Z,57.36
2023-03-26T00:17:38.966Z,56.41
2023-03-26T00:20:41.637Z,56.25
2023-03-26T00:23:44.555Z,56.69
2023-03-26T00:26:53.475Z,57.23
2023-03-26T00:29:56.513Z,57.49
2023-03-26T00:32:59.570Z,58.27
2023-03-26T00:36:04.783Z,58.51
2023-03-26T00:39:07.375Z,58.56
2023-03-26T00:42:10.382Z,58.96
2023-03-26T00:45:13.109Z,58.12
2023-03-26T00:48:16.477Z,57.95
2023-03-26T00:51:20.709Z,57.87
2023-03-26T00:54:23.450Z,57.49
2023-03-26T00:57:35.501Z,57.66
2023-03-26T01:00:57.437Z,57.86
2023-03-26T01:04:28.459Z,57.90
2023-03-26T01:07:32.012Z,57.49
2023-03-26T01:10:38.835Z,56.92
2023-03-26T01:14:04.503Z,57.29
2023-03-26T01:17:07.281Z,56.88
2023-03-26T01:20:30.554Z,56.82
2023-03-26T01:24:08.863Z,56.90
2023-03-26T01:27:24.629Z,56.87
2023-03-26T01:30:58.705Z,57.15
2023-03-26T01:34:21.504Z,57.11
2023-03-26T01:37:52.570Z,56.73
2023-03-26T01:40:55.529Z,56.38
2023-03-26T01:44:06.509Z,57.34
2023-03-26T01:47:08.943Z,56.96
2023-03-26T01:50:11.693Z,56.23
2023-03-26T01:53:14.184Z,56.87
2023-03-26T01:56:42.359Z,57.31
2023-03-26T01:59:44.675Z,57.05
2023-03-26T02:03:18.008Z,56.79
2023-03-26T02:06:25.839Z,56.48
2023-03-26T02:09:30.554Z,56.34
2023-03-26T02:12:33.308Z,56.89
2023-03-26T02:15:35.878Z,57.62
2023-03-26T02:18:41.263Z,57.12
2023-03-26T02:21:43.668Z,58.13
2023-03-26T02:24:46.127Z,58.54
2023-03-26T02:27:49.843Z,58.21
2023-03-26T02:30:57.688Z,58.75
2023-03-26T02:34:00.462Z,59.23
2023-03-26T02:37:05.273Z,59.43
2023-03-26T02:40:11.740Z,59.35
2023-03-26T02:43:17.361Z,59.66
2023-03-26T02:46:19.754Z,60.16
2023-03-26T02:49:36.814Z,60.73
2023-03-26T02:52:39.698Z,60.31
2023-03-26T02:55:42.360Z,59.51
2023-03-26T02:58:46.951Z,59.51
2023-03-26T03:01:49.618Z,61.15
2023-03-26T03:05:01.700Z,60.15
2023-03-26T03:08:09.673Z,60.36
2023-03-26T03:11:17.956Z,60.76
2023-03-26T03:14:24.706Z,61.29
2023-03-26T03:17:27.752Z,60.99
2023-03-26T03:20:30.636Z,60.56
2023-03-26T03:23:33.120Z,60.07
2023-03-26T03:26:48.067Z,59.91
2023-03-26T03:30:19.399Z,60.63
2023-03-26T03:33:22.001Z,61.07
2023-03-26T03:36:28.031Z,61.79
2023-03-26T03:39:40.639Z,61.63
2023-03-26T03:42:43.896Z,61.93
2023-03-26T03:45:48.024Z,62.61
2023-03-26T03:49:07.467Z,62.73
2023-03-26T03:52:12.808Z,62.29
2023-03-26T03:55:18.284Z,61.59
2023-03-26T03:58:28.379Z,60.98
2023-03-26T04:01:35.454Z,61.37
2023-03-26T04:04:46.546Z,61.05
2023-03-26T04:07:51.442Z,60.94
2023-03-26T04:11:02.811Z,60.88
2023-03-26T04:14:23.394Z,61.16
2023-03-26T04:17:42.431Z,61.14
2023-03-26T04:20:46.595Z,61.25
2023-03-26T04:23:55.708Z,60.56
2023-03-26T04:27:20.438Z,61.32
2023-03-26T04:30:23.307Z,61.36
2023-03-26T04:33:46.993Z,61.77
2023-03-26T04:36:54.681Z,60.47
2023-03-26T04:40:09.656Z,61.14
2023-03-26T04:43:16.527Z,61.90
2023-03-26T04:46:43.777Z,63.73
2023-03-26T04:49:57.977Z,62.54
2023-03-26T04:53:01.016Z,63.26
2023-03-26T04:56:45.856Z,63.74
2023-03-26T04:59:48.459Z,62.55
2023-03-26T05:02:51.081Z,62.65
2023-03-26T05:05:54.379Z,62.37
2023-03-26T05:08:57.674Z,62.67
2023-03-26T05:12:22.737Z,61.88
2023-03-26T05:15:33.406Z,60.56
2023-03-26T05:18:46.619Z,61.28
2023-03-26T05:21:49.848Z,60.68
2023-03-26T05:24:52.543Z,59.02
2023-03-26T05:27:55.396Z,58.67
2023-03-26T05:31:01.632Z,57.65
2023-03-26T05:34:08.538Z,56.46
2023-03-26T05:37:11.247Z,55.49
2023-03-26T05:40:26.254Z,54.84
2023-03-26T05:43:37.647Z,53.88
2023-03-26T05:46:49.037Z,54.27
2023-03-26T05:49:56.779Z,54.83
2023-03-26T05:52:59.631Z,54.38
2023-03-26T05:56:05.681Z,54.43
2023-03-26T05:59:26.756Z,53.19
2023-03-26T06:02:56.845Z,52.54
2023-03-26T06:06:09.745Z,52.14
2023-03-26T06:09:21.855Z,51.35
2023-03-26T06:12:24.556Z,52.05
2023-03-26T06:15:27.105Z,50.91
2023-03-26T06:18:37.846Z,50.51
2023-03-26T06:21:58.679Z,50.52
2023-03-26T06:25:08.752Z,50.04
2023-03-26T06:28:31.599Z,49.47
2023-03-26T06:31:54.240Z,50.13
2023-03-26T06:35:00.746Z,49.06
2023-03-26T06:38:03.854Z,49.01
2023-03-26T06:41:09.645Z,49.02
2023-03-26T06:44:44.516Z,48.06
2023-03-26T06:48:05.898Z,48.72
2023-03-26T06:51:34.580Z,47.90
2023-03-26T06:54:57.440Z,48.60
2023-03-26T06:58:32.134Z,47.54
2023-03-26T07:01:53.615Z,46.82
2023-03-26T07:05:14.820Z,45.55
2023-03-26T07:08:35.964Z,45.29
2023-03-26T07:12:07.727Z,44.78
2023-03-26T07:15:25.229Z,44.47
2023-03-26T07:18:30.501Z,44.33
2023-03-26T07:21:34.184Z,43.79
2023-03-26T07:24:41.075Z,44.92
2023-03-26T07:28:01.692Z,47.77
2023-03-26T07:31:45.846Z,47.57
2023-03-26T07:35:47.223Z,48.34
2023-03-26T07:39:28.558Z,46.66
2023-03-26T07:42:50.935Z,44.91
2023-03-26T07:46:06.269Z,44.44
2023-03-26T07:49:43.497Z,44.89
2023-03-26T07:53:04.760Z,45.31
2023-03-26T07:56:48.725Z,44.66
2023-03-26T08:00:40.459Z,45.98
2023-03-26T08:04:24.815Z,45.81
2023-03-26T08:08:30.034Z,45.68
2023-03-26T08:12:27.279Z,45.44
2023-03-26T08:15:45.696Z,44.57
2023-03-26T08:19:16.775Z,41.93
2023-03-26T08:22:34.339Z,41.54
2023-03-26T08:25:49.861Z,40.87
2023-03-26T08:29:12.001Z,42.45
2023-03-26T08:32:15.554Z,42.17
2023-03-26T08:35:18.106Z,42.10
2023-03-26T08:38:20.998Z,42.04
2023-03-26T08:41:32.517Z,42.41
2023-03-26T08:44:47.899Z,43.38
2023-03-26T08:48:29.886Z,43.33
2023-03-26T08:51:54.197Z,42.44
2023-03-26T08:55:32.971Z,42.17
2023-03-26T08:59:10.503Z,41.44
2023-03-26T09:02:28.176Z,40.40
2023-03-26T09:06:07.651Z,36.57
2023-03-26T09:09:47.689Z,36.22
2023-03-26T09:12:53.150Z,36.89
2023-03-26T09:16:33.292Z,34.97
2023-03-26T09:20:00.171Z,34.07
2023-03-26T09:23:21.395Z,36.33
2023-03-26T09:26:36.737Z,37.19
2023-03-26T09:30:01.185Z,35.99
2023-03-26T09:33:15.977Z,34.12
2023-03-26T09:36:22.756Z,35.16
2023-03-26T09:39:28.109Z,37.08
2023-03-26T09:42:34.863Z,36.83
2023-03-26T09:45:57.507Z,35.87
2023-03-26T09:49:29.875Z,33.89
2023-03-26T09:52:54.297Z,34.98
2023-03-26T09:56:21.687Z,35.39
2023-03-26T09:59:45.957Z,34.88
2023-03-26T10:03:00.247Z,32.55
2023-03-26T10:06:03.217Z,31.26
2023-03-26T10:09:22.941Z,33.71
2023-03-26T10:12:50.493Z,33.94
2023-03-26T10:16:17.797Z,34.56
2023-03-26T10:19:23.531Z,37.42
2023-03-26T10:22:37.696Z,39.11
2023-03-26T10:25:40.106Z,40.04
2023-03-26T10:28:59.550Z,46.36
2023-03-26T10:32:30.508Z,51.25
2023-03-26T10:35:58.149Z,53.16
2023-03-26T10:39:36.371Z,57.93
2023-03-26T10:42:59.413Z,60.17
2023-03-26T10:46:04.740Z,58.98
2023-03-26T10:49:37.722Z,60.32
2023-03-26T10:52:47.150Z,58.92
2023-03-26T10:55:53.717Z,59.60
2023-03-26T10:58:56.927Z,58.62
2023-03-26T11:02:29.710Z,50.83
2023-03-26T11:05:51.730Z,50.88
2023-03-26T11:08:54.281Z,52.40
2023-03-26T11:12:26.717Z,52.86
2023-03-26T11:15:38.480Z,52.77
2023-03-26T11:18:49.943Z,51.98
2023-03-26T11:22:20.521Z,54.62
2023-03-26T11:25:38.087Z,53.95
2023-03-26T11:29:03.204Z,57.48
2023-03-26T11:32:11.807Z,54.23
2023-03-26T11:35:40.235Z,48.88
2023-03-26T11:38:48.084Z,51.86
2023-03-26T11:42:06.332Z,54.19
2023-03-26T11:45:18.441Z,48.45
2023-03-26T11:48:20.956Z,45.13
2023-03-26T11:51:27.715Z,41.73
2023-03-26T11:54:30.145Z,36.16
2023-03-26T11:57:35.486Z,32.44
2023-03-26T12:00:38.278Z,28.59
2023-03-26T12:03:40.768Z,29.64
2023-03-26T12:07:22.349Z,33.58
2023-03-26T12:10:34.104Z,35.20
2023-03-26T12:13:43.383Z,35.73
2023-03-26T12:16:59.168Z,34.79
2023-03-26T12:20:02.365Z,32.53
2023-03-26T12:23:05.503Z,28.27
2023-03-26T12:26:17.589Z,24.30
2023-03-26T12:29:20.809Z,26.63
2023-03-26T12:32:32.476Z,23.25
2023-03-26T12:35:42.015Z,21.73
2023-03-26T12:38:46.085Z,19.82
2023-03-26T12:44:46.085Z,21.75
2023-03-26T12:46:44.203Z,20.52
2023-03-26T12:49:17.165Z,20.07
2023-03-26T12:52:41.404Z,21.46
2023-03-26T12:56:03.937Z,24.33
2023-03-26T12:59:34.271Z,26.27
2023-03-26T13:03:06.070Z,25.20
2023-03-26T13:06:26.854Z,24.44
2023-03-26T13:09:55.328Z,26.13
2023-03-26T13:13:01.532Z,27.20
2023-03-26T13:16:17.451Z,28.36
2023-03-26T13:19:19.978Z,26.91
2023-03-26T13:22:34.942Z,28.02
2023-03-26T13:25:40.729Z,25.15
2023-03-26T13:28:55.528Z,26.45
2023-03-26T13:32:16.431Z,27.90
2023-03-26T13:35:31.175Z,27.74
2023-03-26T13:38:58.538Z,27.09
2023-03-26T13:42:25.371Z,23.90
2023-03-26T13:45:38.113Z,25.70
2023-03-26T13:48:47.110Z,26.79
2023-03-26T13:52:17.510Z,26.28
2023-03-26T13:55:32.646Z,26.39
2023-03-26T13:58:48.857Z,27.16
2023-03-26T14:01:54.683Z,26.98
2023-03-26T14:05:01.408Z,26.33
2023-03-26T14:08:37.482Z,26.97
2023-03-26T14:12:06.675Z,26.22
2023-03-26T14:15:36.162Z,24.34
2023-03-26T14:18:46.751Z,22.62
2023-03-26T14:22:02.651Z,25.05
2023-03-26T14:25:17.120Z,24.54
2023-03-26T14:28:36.819Z,24.49
2023-03-26T14:31:42.881Z,24.62
2023-03-26T14:35:13.324Z,23.00
2023-03-26T14:38:21.798Z,22.34
2023-03-26T14:41:25.090Z,21.95
2023-03-26T14:44:48.684Z,21.92
2023-03-26T14:48:29.303Z,22.06
2023-03-26T14:52:17.174Z,22.36
2023-03-26T14:55:31.820Z,21.86
2023-03-26T14:58:49.495Z,21.89
2023-03-26T15:02:23.021Z,22.01
2023-03-26T15:05:41.249Z,20.54
2023-03-26T15:09:00.215Z,21.04
2023-03-26T15:12:17.973Z,21.71
2023-03-26T15:15:35.079Z,22.68
2023-03-26T15:18:56.469Z,22.30
2023-03-26T15:22:28.064Z,23.10
2023-03-26T15:25:41.548Z,23.22
2023-03-26T15:29:24.372Z,24.89
2023-03-26T15:33:05.366Z,25.96
2023-03-26T15:36:32.468Z,26.60
2023-03-26T15:40:07.869Z,27.38
2023-03-26T15:43:14.329Z,27.73
2023-03-26T15:46:19.948Z,28.09
2023-03-26T15:49:45.655Z,28.08
2023-03-26T15:53:02.740Z,27.34
2023-03-26T15:56:17.789Z,27.95
2023-03-26T15:59:33.170Z,28.15
2023-03-26T16:03:10.950Z,28.47
2023-03-26T16:06:28.132Z,28.87
2023-03-26T16:09:49.009Z,29.81
2023-03-26T16:13:12.987Z,29.98
2023-03-26T16:16:15.605Z,30.14
2023-03-26T16:19:21.929Z,30.12
2023-03-26T16:22:43.472Z,30.62
2023-03-26T16:26:09.624Z,30.87
2023-03-26T16:29:14.445Z,31.02
2023-03-26T16:32:18.426Z,31.70
2023-03-26T16:35:26.584Z,31.96
2023-03-26T16:38:50.635Z,32.11
2023-03-26T16:42:06.022Z,32.22
2023-03-26T16:45:23.845Z,32.17
2023-03-26T16:48:32.463Z,32.59
2023-03-26T16:52:10.734Z,32.68
2023-03-26T16:55:35.477Z,32.87
2023-03-26T16:58:40.972Z,33.46
2023-03-26T17:01:48.335Z,33.81
2023-03-26T17:04:54.117Z,33.83
2023-03-26T17:08:16.510Z,34.92
2023-03-26T17:11:25.464Z,34.68
2023-03-26T17:14:41.692Z,35.47
2023-03-26T17:18:14.348Z,36.75
2023-03-26T17:21:25.139Z,35.80
2023-03-26T17:24:39.095Z,36.08
2023-03-26T17:28:33.270Z,36.05
2023-03-26T17:32:08.893Z,36.18
2023-03-26T17:35:14.525Z,36.83
2023-03-26T17:38:17.646Z,37.41
2023-03-26T17:41:55.682Z,37.98
2023-03-26T17:44:59.864Z,38.14
2023-03-26T17:48:10.812Z,38.69
2023-03-26T17:51:30.504Z,38.73
2023-03-26T17:54:44.424Z,39.26
2023-03-26T17:57:52.165Z,38.44
2023-03-26T18:01:27.776Z,39.46
2023-03-26T18:04:35.206Z,38.89
2023-03-26T18:07:57.110Z,39.84
2023-03-26T18:11:17.951Z,40.79
2023-03-26T18:14:49.238Z,40.51
2023-03-26T18:17:51.732Z,41.56
2023-03-26T18:20:55.243Z,40.97
2023-03-26T18:23:59.787Z,41.60
2023-03-26T18:27:14.953Z,41.44
2023-03-26T18:30:22.767Z,39.20
2023-03-26T18:33:26.553Z,41.36
2023-03-26T18:36:29.207Z,41.40
2023-03-26T18:39:31.600Z,41.02
2023-03-26T18:42:34.121Z,39.98
2023-03-26T18:45:37.836Z,40.42
2023-03-26T18:48:40.547Z,40.11
2023-03-26T18:51:56.292Z,42.10
2023-03-26T18:54:59.591Z,42.57
2023-03-26T18:58:31.119Z,42.13
2023-03-26T19:01:36.719Z,40.32
2023-03-26T19:04:39.451Z,39.66
2023-03-26T19:07:41.915Z,39.12
2023-03-26T19:10:48.549Z,41.51
2023-03-26T19:14:00.226Z,40.43
2023-03-26T19:17:03.937Z,40.05
2023-03-26T19:20:19.339Z,41.10
2023-03-26T19:23:23.473Z,40.35
2023-03-26T19:26:25.934Z,41.24
2023-03-26T19:29:34.684Z,40.12
2023-03-26T19:32:40.228Z,40.98
2023-03-26T19:35:51.288Z,40.15
2023-03-26T19:38:54.993Z,41.35
2023-03-26T19:41:57.549Z,43.35
2023-03-26T19:45:04.582Z,44.57
2023-03-26T19:48:14.431Z,44.79
2023-03-26T19:51:44.490Z,43.41
2023-03-26T19:55:01.430Z,44.36
2023-03-26T19:58:04.326Z,42.24
2023-03-26T20:01:07.126Z,43.52
2023-03-26T20:04:10.187Z,42.40
2023-03-26T20:07:14.850Z,42.65
2023-03-26T20:10:17.624Z,43.30
2023-03-26T20:13:20.555Z,42.55
2023-03-26T20:16:26.872Z,41.38
2023-03-26T20:19:29.709Z,40.90
2023-03-26T20:22:32.820Z,39.59
2023-03-26T20:25:35.456Z,41.12
2023-03-26T20:28:47.405Z,40.41
2023-03-26T20:31:50.928Z,41.00
2023-03-26T20:34:53.529Z,41.89
2023-03-26T20:37:55.969Z,41.61
2023-03-26T20:40:58.751Z,41.27
2023-03-26T20:44:03.725Z,42.32
2023-03-26T20:47:06.361Z,41.12
2023-03-26T20:50:10.190Z,40.96
2023-03-26T20:53:15.129Z,41.72
2023-03-26T20:56:18.655Z,40.00
2023-03-26T20:59:23.161Z,40.37
2023-03-26T21:02:25.915Z,40.38
2023-03-26T21:05:30.115Z,40.63
2023-03-26T21:08:36.045Z,41.07
2023-03-26T21:12:05.755Z,41.89
2023-03-26T21:15:22.476Z,42.32
2023-03-26T21:18:26.206Z,41.99
2023-03-26T21:21:57.685Z,41.00
2023-03-26T21:25:06.179Z,42.12
2023-03-26T21:28:41.332Z,42.29
2023-03-26T21:31:46.800Z,42.66
2023-03-26T21:34:58.476Z,43.12
2023-03-26T21:38:04.195Z,44.06
2023-03-26T21:41:07.033Z,46.12
2023-03-26T21:44:09.583Z,46.91
2023-03-26T21:47:12.436Z,47.25
2023-03-26T21:50:17.940Z,48.77
2023-03-26T21:53:22.170Z,48.52
2023-03-26T21:56:37.601Z,49.85
2023-03-26T22:00:08.339Z,53.24
2023-03-26T22:03:25.612Z,52.59
2023-03-26T22:06:50.648Z,53.50
2023-03-26T22:09:53.420Z,54.17
2023-03-26T22:12:55.911Z,54.22
2023-03-26T22:15:58.669Z,54.71
2023-03-26T22:19:01.192Z,54.49
2023-03-26T22:22:03.712Z,55.07
2023-03-26T22:25:06.162Z,56.68
2023-03-26T22:28:08.887Z,59.05
2023-03-26T22:31:12.090Z,60.18
2023-03-26T22:34:14.459Z,61.21
2023-03-26T22:37:17.689Z,62.08
2023-03-26T22:40:20.597Z,63.79
2023-03-26T22:43:23.571Z,64.86
2023-03-26T22:46:26.224Z,66.18
2023-03-26T22:49:30.421Z,66.48
2023-03-26T22:52:33.571Z,67.72
2023-03-26T22:55:36.495Z,67.21
2023-03-26T22:58:38.892Z,68.32
2023-03-26T23:01:41.578Z,67.62
2023-03-26T23:04:44.406Z,68.78
2023-03-26T23:07:47.433Z,68.50
2023-03-26T23:10:49.994Z,68.67
2023-03-26T23:13:52.635Z,69.18
2023-03-26T23:16:55.412Z,69.80
2023-03-26T23:19:57.849Z,70.84
2023-03-26T23:23:01.286Z,70.66
2023-03-26T23:26:06.818Z,71.11
2023-03-26T23:29:09.597Z,72.42
2023-03-26T23:32:24.603Z,73.67
2023-03-26T23:35:27.689Z,73.58
2023-03-26T23:38:43.034Z,74.15
2023-03-26T23:41:47.009Z,74.35
2023-03-26T23:44:49.493Z,75.96
2023-03-26T23:47:51.985Z,74.49
2023-03-26T23:51:04.421Z,75.11
2023-03-26T23:54:08.825Z,74.50
2023-03-26T23:57:11.797Z,73.93
